Share

El Dorado Springs, MO

Nevada (KMONEVAD4) Elev 879 ft | 37.82 °N, 94.33 °W | Change Station

Current weather conditions updated 2 seconds ago

Overcast
Overcast
43.5 °F
Feels Like 42 °F
N
3.1
Wind Variable Wind from North
Gusts 5.4 mph
Sunrise 6:38 AM
Sunset 7:53 PM
Moon Waning Gibbous

Tomorrow is forecast to be Much Warmer than today.

Pressure 30.28 in
Visibility 10.0 miles
Clouds Overcast 9000 ft
Windchill 42 °F
Dew Point 38 °F
Humidity 81%
Rainfall 0.00 in
Snow Depth Not available.
UV 0 out of 16
Pollen 9.20 out of 12
Air Quality Not available.
Flu Activity Sporadic
METAR KGLY 180155Z AUTO 00000KT 10SM OVC090 07/06 A3028 RMK AO2

More Conditions Fewer Conditions

Pressure 30.28 in
Visibility 10.0 miles
Clouds Overcast 9000 ft
Windchill 42 °F
Dew Point 38 °F
Humidity 81%
Rainfall 0.00 in
Snow Depth Not available.
UV 0 out of 16
Pollen 9.20 out of 12
Air Quality Not available.
Flu Activity Sporadic
METAR KGLY 180155Z AUTO 00000KT 10SM OVC090 07/06 A3028 RMK AO2

More Conditions Fewer Conditions

10-Day Forecast

Almanac

Astronomy

Apr. 17, 2014 Rise Set
Actual Time 6:38 AM CDT 7:53 PM CDT
Civil Twilight 6:10 AM CDT 8:21 PM CDT
Nautical Twilight 5:38 AM CDT 8:53 PM CDT
Astronomical Twilight 5:04 AM CDT 9:27 PM CDT
Moon 10:38 PM CDT (4/17) 8:12 AM CDT (4/17)
Length of Visible Light 14h 10m
Length of Day
13h 15m
Tomorrow will be 2m 18s longer.
Waning Gibbous, 91% of the Moon is Illuminated
Today
Waning Gibbous
Apr 22
Last Quarter
Apr 29
New
May 6
First Quarter
May 14
Full

Today's Extremes

State Highs State Lows

Community

  • Morning Light
    Morning Light
  • New Day
    New Day
  • Lake Michigan Sunrise
    Lake Michigan Sunrise
  • sunset from izmir, narlıdere
    sunset from izmir, narlıdere
  • oregon cherry
    oregon cherry

WunderPhotos

Upload Photos

1,702,221 photos uploaded!

WunderBlogs® & News

Nearby

Snow Depth

Station Depth Elevation
No new snow has been reported.

Coastal Water Temperatures

Place Temperature
No Stations Reporting

Earthquake Activity

City Distance Mag. Time & Date
No recent earthquake activity has been reported nearby.
Minimum magnitude displayed is 2.5.

Nearby Weather Stations

Station Location Temp. Windchill Dew Point Humidity Wind Precip. Elev Updated Type
Nevada, Nevada, MO 43.5 °F 42 °F 38 °F 81% North  at  3.1 mph 0.00 in / hr 879 ft 10:10 PM EDT Rapid Fire
Freemont St, Stockton, MO 47.5 °F 45 °F 15 °F 27% NW  at  6.3 mph 0.00 in / hr 925 ft 9:10 PM CDT Normal
Vernon Co. EOC, Nevada, MO 46.0 °F 46 °F 38 °F 72% NNE  at  2.0 mph 0.00 in / hr 873 ft 7:18 PM CDT Rapid Fire
Gordon's Orchard, Collins, MO 45.0 °F 43 °F 41 °F 87% NNE  at  3.7 mph - / hr 883 ft 9:06 PM CDT Normal
Irwin, MO, Lamar, MO 44.1 °F 44 °F 41 °F 88% ENE  at  1.0 mph 0.00 in / hr 955 ft 9:08 PM CDT Normal

Show More Stations Show Fewer Stations

What do you think?

We're not finished. Please let us know what you like, what you don't like, and what you are still missing.